Time;durP1;ratioP1;P1;durP2;ratioP2;P2;SDS_P1;SDS_P2;PMS_P1;PMS_P2;Temp;Humidity;BMP_temperature;BMP_pressure;BME280_temperature;BME280_humidity;BME280_pressure;Samples;Min_cycle;Max_cycle;Signal;HPM_P1;HPM_P2
2022/07/26 15:42:42;;;;;;;;;;;;;;;;;;5057218;27;19964;-57
2022/07/26 15:45:08;;;;;;;;;;;;;;;;;;5055563;28;20351;-54
2022/07/26 15:47:35;;;;;;;;;;;;;;;;;;5055775;28;19925;-59
2022/07/26 15:50:19;;;;;;;;;;;;;;;;;;5061468;28;19929;-59
2022/07/26 15:52:45;;;;;;;;;;;;;;;;;;5054699;28;19933;-59
2022/07/26 15:55:12;;;;;;;;;;;;;;;;;;5047979;28;19931;-60
2022/07/26 15:57:38;;;;;;;;;;;;;;;;;;4994781;28;19933;-62
2022/07/26 16:00:05;;;;;;;;;;;;;;;;;;4926115;28;99271;-60
2022/07/26 16:02:37;;;;;;;;;;;;;;;;;;4924976;28;20002;-60
2022/07/26 16:05:03;;;;;;;;;;;;;;;;;;4980483;28;20024;-60
2022/07/26 16:07:29;;;;;;;;;;;;;;;;;;5012846;28;19930;-59
2022/07/26 16:09:55;;;;;;;;;;;;;;;;;;5011470;28;20016;-60
2022/07/26 16:12:22;;;;;;;;;;;;;;;;;;5009151;28;19933;-59
2022/07/26 16:14:48;;;;;;;;;;;;;;;;;;4973460;28;19932;-62
2022/07/26 16:17:59;;;;;;;;;;;;;;;;;;5039994;28;19949;-70
2022/07/26 16:20:31;;;;;;;;;;;;;;;;;;5040441;28;19929;-69
2022/07/26 16:22:57;;;;;;;;;;;;;;;;;;5039001;28;20048;-70
2022/07/26 16:25:23;;;;;;;;;;;;;;;;;;5039102;28;19934;-69
2022/07/26 16:27:52;;;;;;;;;;;;;;;;;;5042084;28;19925;-70
2022/07/26 16:30:18;;;;;;;;;;;;;;;;;;5040706;28;20028;-69
2022/07/26 16:32:44;;;;;;;;;;;;;;;;;;5011082;28;20017;-70
2022/07/26 16:35:11;;;;;;;;;;;;;;;;;;5029385;28;20381;-70
2022/07/26 16:37:37;;;;;;;;;;;;;;;;;;5013190;28;19932;-70
2022/07/26 16:40:03;;;;;;;;;;;;;;;;;;5009750;28;19956;-70
2022/07/26 16:42:29;;;;;;;;;;;;;;;;;;5014325;28;19932;-70
2022/07/26 16:44:56;;;;;;;;;;;;;;;;;;5019458;28;20029;-70
2022/07/26 16:47:22;;;;;;;;;;;;;;;;;;4968693;28;19969;-68
2022/07/26 16:49:48;;;;;;;;;;;;;;;;;;5061005;28;19925;-69
2022/07/26 16:53:55;;;;;;;3.03;1.23;;;;;;;;;;4866920;27;20501;-50
2022/07/26 16:56:21;;;;;;;10.50;1.80;;;;;;;;;;4898979;28;20085;-47
2022/07/26 16:58:48;;;;;;;2.25;1.17;;;;;;;;;;5021122;28;20049;-52
2022/07/26 17:01:14;;;;;;;8.25;1.85;;;;;;;;;;5022221;28;20125;-47
2022/07/26 17:03:41;;;;;;;2.17;1.30;;;;;;;;;;5027851;28;20758;-48
2022/07/26 17:06:08;;;;;;;3.05;1.40;;;;;;;;;;5025692;28;20145;-46
2022/07/26 17:08:34;;;;;;;2.95;1.38;;;;;;;;;;5031194;28;20155;-49
2022/07/26 17:11:01;;;;;;;2.83;1.17;;;;;;;;;;5031055;28;20486;-48
2022/07/26 17:13:27;;;;;;;3.97;1.00;;;;;;;;;;5028193;28;20077;-46
2022/07/26 17:15:53;;;;;;;3.25;1.00;;;;;;;;;;5023733;28;20081;-51
2022/07/26 17:18:20;;;;;;;2.75;0.90;;;;;;;;;;5019272;28;20045;-47
2022/07/26 17:20:47;;;;;;;4.18;1.30;;;;;;;;;;5023518;28;20088;-49
2022/07/26 17:23:13;;;;;;;2.03;1.10;;;;;;;;;;5026983;28;20508;-47
2022/07/26 17:25:39;;;;;;;3.92;1.27;;;;;;;;;;5028082;28;20057;-49
2022/07/26 17:28:06;;;;;;;2.13;1.23;;;;;;;;;;5024669;28;20057;-48
2022/07/26 17:30:32;;;;;;;3.15;1.33;;;;;;;;;;5018117;28;20128;-50
2022/07/26 17:32:59;;;;;;;2.80;1.27;;;;;;;;;;5027572;28;20048;-47
2022/07/26 17:35:25;;;;;;;3.28;1.30;;;;;;;;;;5030556;28;20132;-48
2022/07/26 17:37:54;;;;;;;1.55;1.25;;;;;;;;;;5022643;28;20125;-47
2022/07/26 17:40:21;;;;;;;4.68;1.13;;;;;;;;;;5021291;28;20633;-47
2022/07/26 17:42:51;;;;;;;3.55;1.40;;;;;;;;;;5022493;28;20085;-46
2022/07/26 17:45:17;;;;;;;1.80;1.17;;;;;;;;;;5030476;28;20084;-47
2022/07/26 17:47:43;;;;;;;2.33;1.30;;;;;;;;;;5032024;28;20132;-48
2022/07/26 17:50:10;;;;;;;3.45;1.42;;;;;;;;;;5018920;28;20049;-52
2022/07/26 17:52:57;;;;;;;3.30;1.20;;;;;;;;;;5022952;28;20145;-47
2022/07/26 17:55:23;;;;;;;5.63;1.50;;;;;;;;;;5024761;28;20084;-50
2022/07/26 17:57:50;;;;;;;3.15;1.42;;;;;;;;;;5028654;28;20149;-50
2022/07/26 18:00:18;;;;;;;1.45;1.20;;;;;;;;;;5027890;28;20045;-52
2022/07/26 18:02:44;;;;;;;3.42;1.40;;;;;;;;;;5022948;28;20053;-51
2022/07/26 18:05:11;;;;;;;2.50;1.50;;;;;;;;;;5012246;28;20044;-49
2022/07/26 18:07:38;;;;;;;3.65;1.38;;;;;;;;;;5032131;28;20080;-50
2022/07/26 18:10:05;;;;;;;3.63;1.25;;;;;;;;;;5010373;28;20056;-46
2022/07/26 18:12:31;;;;;;;2.08;1.17;;;;;;;;;;5011092;28;20136;-46
2022/07/26 18:14:57;;;;;;;1.80;1.02;;;;;;;;;;5016002;28;20136;-46
2022/07/26 18:17:24;;;;;;;1.63;1.25;;;;;;;;;;5009077;28;20128;-49
2022/07/26 18:19:50;;;;;;;1.80;0.85;;;;;;;;;;5010057;28;20042;-47
2022/07/26 18:22:17;;;;;;;3.05;1.00;;;;;;;;;;5011455;28;20516;-46
2022/07/26 18:24:43;;;;;;;5.40;1.25;;;;;;;;;;5032617;28;20137;-50
2022/07/26 18:27:09;;;;;;;4.40;1.15;;;;;;;;;;5009498;28;20231;-48
2022/07/26 18:29:36;;;;;;;4.10;1.65;;;;;;;;;;5013584;28;20129;-51
2022/07/26 18:32:02;;;;;;;3.63;1.30;;;;;;;;;;5004698;28;20054;-46
2022/07/26 18:34:28;;;;;;;3.97;1.23;;;;;;;;;;5012459;28;20159;-49
2022/07/26 18:36:55;;;;;;;2.03;1.23;;;;;;;;;;5017293;28;20038;-52
2022/07/26 18:39:21;;;;;;;2.40;1.10;;;;;;;;;;5017622;28;20069;-50
2022/07/26 18:41:48;;;;;;;6.13;1.40;;;;;;;;;;5008790;28;20137;-51
2022/07/26 18:44:14;;;;;;;5.93;2.20;;;;;;;;;;5004955;28;20144;-48
2022/07/26 18:46:40;;;;;;;3.72;1.55;;;;;;;;;;5002837;28;20133;-46
2022/07/26 18:49:08;;;;;;;4.38;1.60;;;;;;;;;;5004716;28;20108;-48
2022/07/26 18:51:45;;;;;;;5.22;1.15;;;;;;;;;;5003234;28;20053;-51
2022/07/26 18:54:14;;;;;;;3.13;1.40;;;;;;;;;;5007401;28;20045;-46
2022/07/26 18:56:40;;;;;;;3.58;1.10;;;;;;;;;;5006814;28;20042;-48
2022/07/26 18:59:07;;;;;;;3.92;1.30;;;;;;;;;;5003272;28;20675;-48
2022/07/26 19:01:34;;;;;;;1.67;1.17;;;;;;;;;;5009396;28;20075;-52
2022/07/26 19:04:01;;;;;;;3.28;1.40;;;;;;;;;;5006551;28;20053;-49
2022/07/26 19:06:33;;;;;;;5.70;1.50;;;;;;;;;;5003737;28;20057;-45
2022/07/26 19:08:59;;;;;;;3.50;1.50;;;;;;;;;;5009554;28;20042;-49
2022/07/26 19:11:28;;;;;;;3.95;1.60;;;;;;;;;;5007096;28;20053;-52
2022/07/26 19:13:54;;;;;;;3.58;1.55;;;;;;;;;;5005172;28;20539;-48
2022/07/26 19:16:21;;;;;;;1.58;1.20;;;;;;;;;;5005841;28;20141;-47
2022/07/26 19:18:47;;;;;;;1.90;1.63;;;;;;;;;;5004622;28;20058;-46
2022/07/26 19:21:18;;;;;;;2.47;1.30;;;;;;;;;;5005510;28;20145;-45
2022/07/26 19:23:44;;;;;;;2.35;1.30;;;;;;;;;;5014627;28;20057;-45
2022/07/26 19:26:10;;;;;;;3.95;1.60;;;;;;;;;;5003298;28;20133;-45
2022/07/26 19:28:37;;;;;;;3.35;1.20;;;;;;;;;;5000806;28;20042;-46
2022/07/26 19:31:03;;;;;;;5.57;1.70;;;;;;;;;;5002716;28;20068;-47
2022/07/26 19:33:30;;;;;;;3.28;1.58;;;;;;;;;;5004442;28;20137;-47
2022/07/26 19:35:57;;;;;;;2.97;1.38;;;;;;;;;;5007227;28;20125;-48
2022/07/26 19:38:24;;;;;;;4.15;1.60;;;;;;;;;;5021126;28;20400;-49
2022/07/26 19:40:51;;;;;;;4.45;1.70;;;;;;;;;;5011748;28;20046;-48
2022/07/26 19:43:18;;;;;;;5.97;1.70;;;;;;;;;;5009467;28;20168;-46
2022/07/26 19:45:46;;;;;;;5.32;1.70;;;;;;;;;;5006962;28;20432;-45
2022/07/26 19:48:13;;;;;;;5.78;1.65;;;;;;;;;;5010652;28;20045;-46
2022/07/26 19:50:40;;;;;;;6.70;2.17;;;;;;;;;;4999324;28;20152;-49
2022/07/26 19:53:06;;;;;;;8.50;2.05;;;;;;;;;;4992656;28;20052;-48
2022/07/26 19:55:32;;;;;;;9.60;1.55;;;;;;;;;;4995656;28;20050;-50
2022/07/26 19:57:59;;;;;;;7.28;1.60;;;;;;;;;;5003075;28;20046;-47
2022/07/26 20:00:26;;;;;;;6.55;1.70;;;;;;;;;;5007166;28;20080;-46
2022/07/26 20:02:53;;;;;;;6.22;1.65;;;;;;;;;;5007293;28;20144;-49
2022/07/26 20:05:19;;;;;;;7.38;2.10;;;;;;;;;;5005887;28;20058;-47
2022/07/26 20:07:47;;;;;;;6.93;2.20;;;;;;;;;;5010292;28;20471;-48
2022/07/26 20:10:14;;;;;;;5.20;1.95;;;;;;;;;;5003981;28;20052;-53
2022/07/26 20:12:41;;;;;;;8.43;1.95;;;;;;;;;;5011257;28;20137;-46
2022/07/26 20:15:08;;;;;;;4.05;2.03;;;;;;;;;;5005137;28;20170;-51
2022/07/26 20:17:36;;;;;;;4.55;1.80;;;;;;;;;;5007607;28;20045;-49
2022/07/26 20:20:03;;;;;;;5.00;1.88;;;;;;;;;;5002162;28;20124;-48
2022/07/26 20:22:29;;;;;;;5.38;2.00;;;;;;;;;;5004851;28;20176;-47
2022/07/26 20:24:55;;;;;;;6.30;2.00;;;;;;;;;;5006475;28;20045;-47
2022/07/26 20:27:22;;;;;;;4.55;1.73;;;;;;;;;;5007269;28;20074;-49
2022/07/26 20:29:49;;;;;;;5.18;1.80;;;;;;;;;;5005428;28;20050;-49
2022/07/26 20:32:16;;;;;;;6.72;2.15;;;;;;;;;;5023091;28;20089;-47
2022/07/26 20:34:42;;;;;;;3.92;1.70;;;;;;;;;;5000012;28;20493;-47
2022/07/26 20:37:09;;;;;;;4.50;1.80;;;;;;;;;;5004848;28;20077;-48
2022/07/26 20:39:35;;;;;;;5.00;1.83;;;;;;;;;;5005763;28;20054;-49
2022/07/26 20:42:01;;;;;;;4.18;1.70;;;;;;;;;;5004530;28;20074;-48
2022/07/26 20:44:29;;;;;;;3.17;2.10;;;;;;;;;;5008700;28;20099;-49
2022/07/26 20:46:55;;;;;;;6.63;2.35;;;;;;;;;;5010082;28;20081;-48
2022/07/26 20:49:21;;;;;;;6.05;1.67;;;;;;;;;;5003271;28;20563;-47
2022/07/26 20:51:48;;;;;;;4.10;1.85;;;;;;;;;;5006856;28;20066;-49
2022/07/26 20:54:14;;;;;;;4.55;2.55;;;;;;;;;;5006375;28;20050;-46
2022/07/26 20:56:41;;;;;;;3.83;1.92;;;;;;;;;;5002974;28;20060;-49
2022/07/26 20:59:08;;;;;;;13.35;2.35;;;;;;;;;;4927756;28;20524;-50
2022/07/26 21:01:35;;;;;;;4.70;1.98;;;;;;;;;;4992681;28;20038;-49
2022/07/26 21:04:02;;;;;;;3.10;2.03;;;;;;;;;;4988342;28;20488;-48
2022/07/26 21:06:28;;;;;;;4.90;2.20;;;;;;;;;;4990645;28;20080;-47
2022/07/26 21:08:56;;;;;;;4.68;2.10;;;;;;;;;;4987253;28;20095;-46
2022/07/26 21:11:22;;;;;;;8.35;2.30;;;;;;;;;;4983614;28;20057;-50
2022/07/26 21:13:49;;;;;;;5.57;2.40;;;;;;;;;;4982696;28;20047;-47
2022/07/26 21:16:18;;;;;;;5.57;2.55;;;;;;;;;;4984969;28;20490;-48
2022/07/26 21:18:44;;;;;;;7.53;2.50;;;;;;;;;;4987938;28;20185;-46
2022/07/26 21:21:18;;;;;;;9.75;2.60;;;;;;;;;;4993393;28;20117;-47
2022/07/26 21:23:44;;;;;;;6.07;2.22;;;;;;;;;;4989501;28;20078;-46
2022/07/26 21:26:11;;;;;;;5.35;2.20;;;;;;;;;;4981048;28;20665;-46
2022/07/26 21:28:37;;;;;;;4.88;1.90;;;;;;;;;;4988744;28;20149;-48
2022/07/26 21:31:04;;;;;;;4.90;2.45;;;;;;;;;;4987706;28;20117;-49
2022/07/26 21:33:30;;;;;;;6.13;2.55;;;;;;;;;;4990265;28;20058;-45
2022/07/26 21:35:57;;;;;;;3.60;2.10;;;;;;;;;;4985392;28;20072;-46
2022/07/26 21:38:23;;;;;;;4.45;1.90;;;;;;;;;;4984714;28;20129;-48
2022/07/26 21:40:50;;;;;;;3.72;1.92;;;;;;;;;;4989106;28;20043;-48
2022/07/26 21:43:16;;;;;;;5.55;2.03;;;;;;;;;;4989157;28;20109;-46
2022/07/26 21:45:43;;;;;;;14.75;2.88;;;;;;;;;;4997618;28;20140;-47
2022/07/26 21:48:09;;;;;;;4.10;2.00;;;;;;;;;;4988004;28;20391;-53
2022/07/26 21:50:36;;;;;;;5.70;1.85;;;;;;;;;;4992722;28;20046;-51
2022/07/26 21:53:02;;;;;;;5.57;2.10;;;;;;;;;;4988656;28;20133;-47
2022/07/26 21:55:29;;;;;;;6.60;2.28;;;;;;;;;;4987719;28;20146;-48
2022/07/26 21:57:55;;;;;;;16.17;2.88;;;;;;;;;;4988461;28;21057;-46
2022/07/26 22:00:22;;;;;;;5.03;2.10;;;;;;;;;;4989025;28;20062;-46
2022/07/26 22:02:48;;;;;;;5.38;2.20;;;;;;;;;;4994514;28;20056;-48
2022/07/26 22:08:00;;;;;;;3.38;2.00;;;;;;;;;;4989652;28;20085;-48
2022/07/26 22:10:27;;;;;;;6.45;2.13;;;;;;;;;;4991343;28;20046;-50
2022/07/26 22:12:53;;;;;;;6.85;2.50;;;;;;;;;;4990100;28;20492;-46
2022/07/26 22:15:20;;;;;;;6.97;2.63;;;;;;;;;;4989582;28;20064;-47
2022/07/26 22:17:46;;;;;;;6.93;2.00;;;;;;;;;;4991212;28;20085;-46
2022/07/26 22:20:13;;;;;;;5.85;2.20;;;;;;;;;;4984638;28;20044;-49
2022/07/26 22:22:40;;;;;;;4.90;2.00;;;;;;;;;;4988679;28;20073;-46
2022/07/26 22:25:06;;;;;;;5.35;2.83;;;;;;;;;;4991519;28;20504;-48
2022/07/26 22:27:33;;;;;;;5.00;2.45;;;;;;;;;;4988453;28;20051;-51
2022/07/26 22:29:59;;;;;;;5.20;2.10;;;;;;;;;;4994065;28;20045;-46
2022/07/26 22:32:26;;;;;;;7.10;2.08;;;;;;;;;;4992552;28;20052;-46
2022/07/26 22:34:52;;;;;;;11.10;2.17;;;;;;;;;;4995588;28;20141;-48
2022/07/26 22:37:18;;;;;;;8.55;2.10;;;;;;;;;;4994363;28;20134;-45
2022/07/26 22:39:45;;;;;;;3.63;2.10;;;;;;;;;;4997304;28;20133;-48
2022/07/26 22:42:11;;;;;;;3.55;2.00;;;;;;;;;;4991046;28;20095;-47
2022/07/26 22:44:41;;;;;;;3.47;2.13;;;;;;;;;;4995124;28;20429;-45
2022/07/26 22:47:07;;;;;;;4.00;2.08;;;;;;;;;;4994584;28;20070;-48
2022/07/26 22:49:34;;;;;;;5.60;2.40;;;;;;;;;;4991742;28;20386;-46
2022/07/26 22:52:00;;;;;;;3.35;2.10;;;;;;;;;;4991873;28;20085;-51
2022/07/26 22:54:27;;;;;;;4.10;2.22;;;;;;;;;;4995187;28;20074;-46
2022/07/26 22:56:53;;;;;;;5.85;2.35;;;;;;;;;;4992796;28;20077;-46
2022/07/26 22:59:21;;;;;;;3.78;2.00;;;;;;;;;;4991202;28;20129;-46
2022/07/26 23:01:47;;;;;;;4.72;1.95;;;;;;;;;;4991124;28;20125;-45
2022/07/26 23:04:14;;;;;;;7.32;2.30;;;;;;;;;;4993577;28;20054;-48
2022/07/26 23:06:41;;;;;;;7.82;2.45;;;;;;;;;;4998544;28;20057;-48
2022/07/26 23:09:10;;;;;;;6.15;2.10;;;;;;;;;;4990979;28;20520;-51
2022/07/26 23:11:37;;;;;;;6.88;2.67;;;;;;;;;;4994659;28;20473;-48
2022/07/26 23:14:04;;;;;;;6.28;2.10;;;;;;;;;;4991940;28;20363;-46
2022/07/26 23:16:30;;;;;;;8.15;2.47;;;;;;;;;;4996339;28;20046;-48
2022/07/26 23:18:57;;;;;;;8.85;1.88;;;;;;;;;;4997763;28;20096;-47
2022/07/26 23:21:23;;;;;;;7.38;2.33;;;;;;;;;;4990400;28;20045;-50
2022/07/26 23:23:50;;;;;;;5.68;2.10;;;;;;;;;;4992305;28;20173;-47
2022/07/26 23:26:16;;;;;;;4.57;2.40;;;;;;;;;;4991052;28;20074;-46
2022/07/26 23:28:42;;;;;;;11.98;2.65;;;;;;;;;;4990218;28;20145;-47
2022/07/26 23:31:09;;;;;;;7.97;2.42;;;;;;;;;;4992981;28;20417;-48
2022/07/26 23:33:37;;;;;;;4.68;2.20;;;;;;;;;;4995334;28;20410;-48
2022/07/26 23:36:19;;;;;;;5.10;2.03;;;;;;;;;;4992772;28;20081;-47
2022/07/26 23:38:45;;;;;;;12.32;2.47;;;;;;;;;;4995175;28;20069;-50
2022/07/26 23:41:11;;;;;;;4.03;2.30;;;;;;;;;;4995983;28;20130;-50
2022/07/26 23:43:38;;;;;;;4.60;2.50;;;;;;;;;;4993229;28;20594;-49
2022/07/26 23:46:04;;;;;;;4.38;2.58;;;;;;;;;;4994705;28;20061;-48
2022/07/26 23:48:30;;;;;;;4.80;2.42;;;;;;;;;;4993593;28;20051;-48
2022/07/26 23:50:57;;;;;;;6.57;2.60;;;;;;;;;;4992911;28;20054;-47
2022/07/26 23:53:24;;;;;;;9.50;3.22;;;;;;;;;;4992578;28;20062;-51
2022/07/26 23:55:52;;;;;;;3.58;2.28;;;;;;;;;;4991315;28;20050;-46
2022/07/26 23:58:19;;;;;;;5.00;2.58;;;;;;;;;;4991849;28;20054;-50
